Time;durP1;ratioP1;P1;durP2;ratioP2;P2;SDS_P1;SDS_P2;PMS_P1;PMS_P2;Temp;Humidity;BMP_temperature;BMP_pressure;BME280_temperature;BME280_humidity;BME280_pressure;Samples;Min_cycle;Max_cycle;Signal;HPM_P1;HPM_P2
2023/09/29 00:01:26;;;;;;;9.98;3.40;;;;;;;;;;5076999;28;20395;-83
2023/09/29 00:03:51;;;;;;;8.52;3.50;;;;;;;;;;5074334;28;20058;-80
2023/09/29 00:06:17;;;;;;;7.13;3.45;;;;;;;;;;5054961;28;20476;-80
2023/09/29 00:08:45;;;;;;;8.75;3.00;;;;;;;;;;5056615;28;20654;-80
2023/09/29 00:11:12;;;;;;;10.27;3.78;;;;;;;;;;5065269;28;20415;-80
2023/09/29 00:13:38;;;;;;;10.40;3.28;;;;;;;;;;5065216;28;20055;-80
2023/09/29 00:16:03;;;;;;;8.40;3.42;;;;;;;;;;5048224;28;20024;-80
2023/09/29 00:18:30;;;;;;;9.55;3.42;;;;;;;;;;5049804;28;20032;-81
2023/09/29 00:20:55;;;;;;;10.07;3.75;;;;;;;;;;5055817;28;20119;-80
2023/09/29 00:23:20;;;;;;;6.88;3.05;;;;;;;;;;5070097;28;20427;-80
2023/09/29 00:25:46;;;;;;;8.57;3.30;;;;;;;;;;5049652;28;20062;-81
2023/09/29 00:28:11;;;;;;;7.72;3.20;;;;;;;;;;5053532;28;20090;-81
2023/09/29 00:30:37;;;;;;;9.50;3.83;;;;;;;;;;5069137;28;20029;-79
2023/09/29 00:33:03;;;;;;;8.82;3.17;;;;;;;;;;5053624;28;20024;-79
2023/09/29 00:35:28;;;;;;;7.90;3.47;;;;;;;;;;5060408;28;20024;-80
2023/09/29 00:37:55;;;;;;;9.73;3.95;;;;;;;;;;5071217;28;20337;-80
2023/09/29 00:40:21;;;;;;;9.38;3.20;;;;;;;;;;5051019;28;20111;-80
2023/09/29 00:42:46;;;;;;;10.85;3.35;;;;;;;;;;5070560;28;20078;-80
2023/09/29 00:45:16;;;;;;;9.95;3.25;;;;;;;;;;5068784;28;20028;-80
2023/09/29 00:47:43;;;;;;;9.95;3.90;;;;;;;;;;5047825;28;20135;-80
2023/09/29 00:50:10;;;;;;;7.30;3.20;;;;;;;;;;5051734;28;20020;-81
2023/09/29 00:52:40;;;;;;;9.38;3.60;;;;;;;;;;5063927;28;20119;-81
2023/09/29 00:55:11;;;;;;;7.25;3.53;;;;;;;;;;5046791;28;20553;-80
2023/09/29 00:57:39;;;;;;;8.45;3.53;;;;;;;;;;5072267;28;20392;-81
2023/09/29 01:00:31;;;;;;;10.43;3.90;;;;;;;;;;5052052;28;20029;-78
2023/09/29 01:03:03;;;;;;;9.77;3.92;;;;;;;;;;5063029;28;20020;-82
2023/09/29 01:05:32;;;;;;;12.55;3.72;;;;;;;;;;5068213;28;20051;-78
2023/09/29 01:07:57;;;;;;;10.57;3.67;;;;;;;;;;5052639;28;20123;-79
2023/09/29 01:10:24;;;;;;;9.25;3.53;;;;;;;;;;5054641;28;20890;-79
2023/09/29 01:12:49;;;;;;;8.10;3.50;;;;;;;;;;5051018;28;20048;-79
2023/09/29 01:15:15;;;;;;;12.35;4.28;;;;;;;;;;5064559;28;20032;-80
2023/09/29 01:17:42;;;;;;;12.23;3.40;;;;;;;;;;5067840;28;20035;-78
2023/09/29 01:20:43;;;;;;;8.27;4.00;;;;;;;;;;5047595;28;20463;-78
2023/09/29 01:23:05;;;;;;;8.07;3.22;;;;;;;;;;5060987;28;20071;-79
2023/09/29 01:25:30;;;;;;;9.40;3.80;;;;;;;;;;5068701;28;20447;-78
2023/09/29 01:27:56;;;;;;;8.63;3.88;;;;;;;;;;5069282;28;20028;-81
2023/09/29 01:30:24;;;;;;;7.15;4.05;;;;;;;;;;5067966;28;20431;-81
2023/09/29 01:32:51;;;;;;;9.70;4.00;;;;;;;;;;5063030;28;20024;-81
2023/09/29 01:35:17;;;;;;;10.43;4.10;;;;;;;;;;5068949;28;20024;-81
2023/09/29 01:37:46;;;;;;;8.43;3.53;;;;;;;;;;5062164;28;20047;-79
2023/09/29 01:40:13;;;;;;;10.50;3.58;;;;;;;;;;5067652;28;20037;-78
2023/09/29 01:42:40;;;;;;;8.60;3.92;;;;;;;;;;5076173;28;20580;-79
2023/09/29 01:45:07;;;;;;;9.10;3.83;;;;;;;;;;5069074;28;20025;-79
2023/09/29 01:47:34;;;;;;;9.90;3.88;;;;;;;;;;5070980;28;20024;-79
2023/09/29 01:50:00;;;;;;;9.88;3.88;;;;;;;;;;5072418;28;20017;-79
2023/09/29 01:52:25;;;;;;;10.82;3.30;;;;;;;;;;5045299;28;20434;-80
2023/09/29 01:54:50;;;;;;;9.52;4.10;;;;;;;;;;5062710;28;20025;-79
2023/09/29 01:57:16;;;;;;;7.75;3.50;;;;;;;;;;5050697;28;20017;-79
2023/09/29 01:59:41;;;;;;;9.70;3.95;;;;;;;;;;5044467;28;20016;-78
2023/09/29 02:02:07;;;;;;;6.88;3.70;;;;;;;;;;5048292;28;20396;-79
2023/09/29 02:04:34;;;;;;;9.15;3.80;;;;;;;;;;5050829;28;20357;-79
2023/09/29 02:07:00;;;;;;;6.45;2.95;;;;;;;;;;5064087;28;20515;-79
2023/09/29 02:09:26;;;;;;;8.20;3.55;;;;;;;;;;5063830;28;20013;-78
2023/09/29 02:11:54;;;;;;;8.60;3.58;;;;;;;;;;5069704;28;20500;-78
2023/09/29 02:14:20;;;;;;;7.55;3.45;;;;;;;;;;5051563;28;20040;-79
2023/09/29 02:16:48;;;;;;;7.22;3.42;;;;;;;;;;5048167;28;20146;-80
2023/09/29 02:19:14;;;;;;;9.90;3.88;;;;;;;;;;5052377;28;20050;-78
2023/09/29 02:21:41;;;;;;;9.75;4.55;;;;;;;;;;5055249;28;20123;-80
2023/09/29 02:24:07;;;;;;;5.65;3.05;;;;;;;;;;5066393;28;20017;-79
2023/09/29 02:26:34;;;;;;;7.40;3.17;;;;;;;;;;5047629;28;20032;-78
2023/09/29 02:29:00;;;;;;;6.07;3.10;;;;;;;;;;5066215;28;20024;-79
2023/09/29 02:31:26;;;;;;;7.50;3.92;;;;;;;;;;5069611;28;20036;-79
2023/09/29 02:33:53;;;;;;;5.72;3.10;;;;;;;;;;5067412;28;20124;-79
2023/09/29 02:36:18;;;;;;;7.13;3.10;;;;;;;;;;5067873;28;20765;-83
2023/09/29 02:38:44;;;;;;;7.75;3.40;;;;;;;;;;5062156;28;20029;-78
2023/09/29 02:41:09;;;;;;;9.10;3.10;;;;;;;;;;5067147;28;20035;-81
2023/09/29 02:43:34;;;;;;;6.22;2.78;;;;;;;;;;5042949;28;20161;-81
2023/09/29 02:46:00;;;;;;;7.40;3.00;;;;;;;;;;5067253;28;20029;-80
2023/09/29 02:48:27;;;;;;;8.77;3.03;;;;;;;;;;5065523;28;20087;-80
2023/09/29 02:50:53;;;;;;;6.65;3.05;;;;;;;;;;5065391;28;20040;-79
2023/09/29 02:53:18;;;;;;;6.47;3.20;;;;;;;;;;5066304;28;20468;-78
2023/09/29 02:55:45;;;;;;;5.32;2.50;;;;;;;;;;5066069;28;20028;-79
2023/09/29 02:58:11;;;;;;;6.28;2.70;;;;;;;;;;5043816;28;20468;-79
2023/09/29 03:00:37;;;;;;;5.68;2.55;;;;;;;;;;5066896;28;20028;-78
2023/09/29 03:03:03;;;;;;;7.47;3.15;;;;;;;;;;5070409;28;20028;-79
2023/09/29 03:05:29;;;;;;;6.60;3.13;;;;;;;;;;5064185;28;20047;-79
2023/09/29 03:07:55;;;;;;;5.22;2.63;;;;;;;;;;5063557;28;20028;-80
2023/09/29 03:10:20;;;;;;;6.65;2.90;;;;;;;;;;5068387;28;20499;-79
2023/09/29 03:12:46;;;;;;;5.97;3.38;;;;;;;;;;5053337;28;20085;-78
2023/09/29 03:15:15;;;;;;;5.18;2.72;;;;;;;;;;5052409;28;20028;-79
2023/09/29 03:17:41;;;;;;;5.47;2.67;;;;;;;;;;5067511;28;20404;-78
2023/09/29 03:20:12;;;;;;;7.18;3.00;;;;;;;;;;5053393;28;20020;-79
2023/09/29 03:22:41;;;;;;;5.18;2.55;;;;;;;;;;5049078;28;20029;-79
2023/09/29 03:25:09;;;;;;;5.20;2.40;;;;;;;;;;5048460;28;20207;-78
2023/09/29 03:27:35;;;;;;;7.28;2.63;;;;;;;;;;5051698;28;20400;-80
2023/09/29 03:30:02;;;;;;;6.63;2.50;;;;;;;;;;5047432;28;20107;-80
2023/09/29 03:32:29;;;;;;;6.95;3.17;;;;;;;;;;5047749;28;20071;-78
2023/09/29 03:34:54;;;;;;;7.53;2.63;;;;;;;;;;5069887;28;20028;-79
2023/09/29 03:37:19;;;;;;;5.55;2.60;;;;;;;;;;5070911;28;20024;-79
2023/09/29 03:39:47;;;;;;;6.22;2.92;;;;;;;;;;5064473;28;20031;-80
2023/09/29 03:42:13;;;;;;;7.22;2.92;;;;;;;;;;5066950;28;20028;-78
2023/09/29 03:44:39;;;;;;;6.60;2.92;;;;;;;;;;5063595;28;20028;-79
2023/09/29 03:47:04;;;;;;;6.63;2.67;;;;;;;;;;5049922;28;20078;-79
2023/09/29 03:49:31;;;;;;;6.85;2.63;;;;;;;;;;5065183;28;20032;-79
2023/09/29 03:51:57;;;;;;;4.68;2.55;;;;;;;;;;5067037;28;20535;-78
2023/09/29 03:54:23;;;;;;;6.55;2.25;;;;;;;;;;5064294;28;20112;-78
2023/09/29 03:56:53;;;;;;;6.15;2.45;;;;;;;;;;5066178;28;20464;-79
2023/09/29 03:59:20;;;;;;;6.63;2.80;;;;;;;;;;5050258;28;20029;-80
2023/09/29 04:01:47;;;;;;;5.15;2.55;;;;;;;;;;5046178;28;20043;-80
2023/09/29 04:04:13;;;;;;;5.85;2.60;;;;;;;;;;5065558;28;20024;-80
2023/09/29 04:06:38;;;;;;;4.50;2.42;;;;;;;;;;5061897;28;20029;-81
2023/09/29 04:09:04;;;;;;;7.30;2.75;;;;;;;;;;5048171;28;20026;-81
2023/09/29 04:11:30;;;;;;;5.82;2.95;;;;;;;;;;5047369;28;20554;-80
2023/09/29 04:13:56;;;;;;;7.70;2.47;;;;;;;;;;5063702;28;20024;-80
2023/09/29 04:16:21;;;;;;;5.63;2.45;;;;;;;;;;5067171;28;20029;-80
2023/09/29 04:18:46;;;;;;;7.72;3.00;;;;;;;;;;5058150;28;20024;-80
2023/09/29 04:21:15;;;;;;;6.57;2.72;;;;;;;;;;5060707;28;20021;-80
2023/09/29 04:23:42;;;;;;;6.18;2.67;;;;;;;;;;5047666;28;20449;-81
2023/09/29 04:26:14;;;;;;;7.10;3.00;;;;;;;;;;5063997;28;20060;-80
2023/09/29 04:28:40;;;;;;;5.95;2.53;;;;;;;;;;5068693;28;20055;-81
2023/09/29 04:31:06;;;;;;;5.35;2.35;;;;;;;;;;5068189;28;20485;-80
2023/09/29 04:33:33;;;;;;;6.30;2.80;;;;;;;;;;5065069;28;20507;-81
2023/09/29 04:35:59;;;;;;;5.35;2.60;;;;;;;;;;5067081;28;20031;-80
2023/09/29 04:38:24;;;;;;;5.53;2.33;;;;;;;;;;5044038;28;20033;-81
2023/09/29 04:40:49;;;;;;;5.50;2.50;;;;;;;;;;5044860;28;20028;-81
2023/09/29 04:43:15;;;;;;;6.70;2.85;;;;;;;;;;5046864;28;20037;-81
2023/09/29 04:45:40;;;;;;;6.45;2.85;;;;;;;;;;5048945;28;20043;-80
2023/09/29 04:48:05;;;;;;;6.57;3.22;;;;;;;;;;5043797;28;20029;-80
2023/09/29 04:50:31;;;;;;;4.65;2.60;;;;;;;;;;5066019;28;20052;-80
2023/09/29 04:52:56;;;;;;;4.38;2.40;;;;;;;;;;5044373;28;20021;-81
2023/09/29 04:55:22;;;;;;;4.75;2.53;;;;;;;;;;5043898;28;20032;-81
2023/09/29 04:57:47;;;;;;;4.57;2.35;;;;;;;;;;5053743;28;20020;-80
2023/09/29 05:00:16;;;;;;;7.05;2.80;;;;;;;;;;5073497;28;20366;-81
2023/09/29 05:02:42;;;;;;;5.57;2.35;;;;;;;;;;5069307;28;20031;-80
2023/09/29 05:05:09;;;;;;;3.88;2.53;;;;;;;;;;5055179;28;20430;-81
2023/09/29 05:07:35;;;;;;;5.78;2.97;;;;;;;;;;5064646;28;20059;-80
2023/09/29 05:10:00;;;;;;;4.05;2.45;;;;;;;;;;5071202;28;20024;-79
2023/09/29 05:12:25;;;;;;;5.32;2.70;;;;;;;;;;5048800;28;20381;-79
2023/09/29 05:14:51;;;;;;;7.55;2.90;;;;;;;;;;5065246;28;20063;-83
2023/09/29 05:17:16;;;;;;;3.80;2.30;;;;;;;;;;5047810;28;20067;-83
2023/09/29 05:19:41;;;;;;;6.35;2.72;;;;;;;;;;5078742;28;20033;-84
2023/09/29 05:22:07;;;;;;;5.50;2.38;;;;;;;;;;5074816;28;20017;-83
2023/09/29 05:24:33;;;;;;;5.40;2.72;;;;;;;;;;5074548;28;20028;-83
2023/09/29 05:26:59;;;;;;;5.22;2.30;;;;;;;;;;5072159;28;20029;-83
2023/09/29 05:29:24;;;;;;;5.07;2.45;;;;;;;;;;5064041;28;20039;-83
2023/09/29 05:31:51;;;;;;;5.18;2.38;;;;;;;;;;5064212;28;20449;-83
2023/09/29 05:34:17;;;;;;;5.47;2.75;;;;;;;;;;5069425;28;20025;-81
2023/09/29 05:36:45;;;;;;;5.03;2.45;;;;;;;;;;5046899;28;20035;-81
2023/09/29 05:39:10;;;;;;;5.60;2.80;;;;;;;;;;5063876;28;20500;-81
2023/09/29 05:41:36;;;;;;;5.47;3.08;;;;;;;;;;5066755;28;20062;-81
2023/09/29 05:44:01;;;;;;;5.07;2.65;;;;;;;;;;5048049;28;20446;-81
2023/09/29 05:46:26;;;;;;;6.65;2.42;;;;;;;;;;5046532;28;20035;-81
2023/09/29 05:48:52;;;;;;;3.85;2.33;;;;;;;;;;5044547;28;20129;-81
2023/09/29 05:51:17;;;;;;;6.20;2.50;;;;;;;;;;5068468;28;20032;-81
2023/09/29 05:53:42;;;;;;;6.05;2.50;;;;;;;;;;5050430;28;20078;-81
2023/09/29 05:56:12;;;;;;;7.00;3.08;;;;;;;;;;5073784;28;20526;-81
2023/09/29 05:58:39;;;;;;;6.30;2.72;;;;;;;;;;5052977;28;20480;-81
2023/09/29 06:01:12;;;;;;;5.93;2.60;;;;;;;;;;5064467;28;20025;-81
2023/09/29 06:03:38;;;;;;;;;;;;;;;;;;5046833;28;20480;-81
2023/09/29 06:06:04;;;;;;;6.25;2.70;;;;;;;;;;5072402;28;19908;-81
2023/09/29 06:08:29;;;;;;;6.45;2.60;;;;;;;;;;5051887;28;20051;-81
2023/09/29 06:10:55;;;;;;;5.30;2.55;;;;;;;;;;5060581;28;20024;-81
2023/09/29 06:13:21;;;;;;;6.45;2.80;;;;;;;;;;5067165;28;20077;-81
2023/09/29 06:15:47;;;;;;;5.43;2.78;;;;;;;;;;5061372;28;20713;-78
2023/09/29 06:18:12;;;;;;;6.82;2.60;;;;;;;;;;5064720;28;20115;-81
2023/09/29 06:20:37;;;;;;;4.70;2.40;;;;;;;;;;5051043;28;20037;-81
2023/09/29 06:23:04;;;;;;;6.55;2.58;;;;;;;;;;5068372;28;20032;-81
2023/09/29 06:25:30;;;;;;;7.10;3.13;;;;;;;;;;5046539;28;20029;-81
2023/09/29 06:27:56;;;;;;;7.93;2.90;;;;;;;;;;5064062;28;20021;-79
2023/09/29 06:30:22;;;;;;;5.93;3.13;;;;;;;;;;5047940;28;20515;-79
2023/09/29 06:32:47;;;;;;;5.88;2.63;;;;;;;;;;5045705;28;20021;-79
2023/09/29 06:35:14;;;;;;;5.78;2.90;;;;;;;;;;5066283;28;20033;-80
2023/09/29 06:37:40;;;;;;;5.00;2.40;;;;;;;;;;5049563;28;20052;-79
2023/09/29 06:40:06;;;;;;;5.95;2.63;;;;;;;;;;5046332;28;20021;-79
2023/09/29 06:42:31;;;;;;;5.78;2.60;;;;;;;;;;5048252;28;20119;-79
2023/09/29 06:44:57;;;;;;;4.40;2.33;;;;;;;;;;5052389;28;20616;-79
2023/09/29 06:47:22;;;;;;;4.50;2.47;;;;;;;;;;5060639;28;20032;-79
2023/09/29 06:49:48;;;;;;;5.38;2.42;;;;;;;;;;5032865;28;20416;-79
2023/09/29 06:52:14;;;;;;;4.30;2.70;;;;;;;;;;5051977;28;20030;-79
2023/09/29 06:54:39;;;;;;;4.57;2.40;;;;;;;;;;5037573;28;20400;-79
2023/09/29 06:57:04;;;;;;;4.93;2.42;;;;;;;;;;5050944;28;20024;-79
2023/09/29 06:59:30;;;;;;;6.35;2.60;;;;;;;;;;5052520;28;20107;-79
2023/09/29 07:01:55;;;;;;;5.85;2.67;;;;;;;;;;5033279;28;20051;-80
2023/09/29 07:04:21;;;;;;;7.97;2.90;;;;;;;;;;5040078;28;20024;-79
2023/09/29 07:06:46;;;;;;;5.63;2.60;;;;;;;;;;5045843;28;20379;-79
2023/09/29 07:09:12;;;;;;;3.63;2.30;;;;;;;;;;5048549;28;20472;-79
2023/09/29 07:11:40;;;;;;;6.65;2.35;;;;;;;;;;5066347;28;20032;-79
2023/09/29 07:14:06;;;;;;;7.68;2.53;;;;;;;;;;5058249;28;20392;-79
2023/09/29 07:16:32;;;;;;;6.05;2.38;;;;;;;;;;5066547;28;20519;-79
2023/09/29 07:18:57;;;;;;;6.55;2.28;;;;;;;;;;5049099;28;20048;-79
2023/09/29 07:21:23;;;;;;;5.82;2.55;;;;;;;;;;5058022;28;20033;-78
2023/09/29 07:23:48;;;;;;;5.13;2.10;;;;;;;;;;5050204;28;20036;-80
2023/09/29 07:26:14;;;;;;;4.65;2.15;;;;;;;;;;5049839;28;20020;-78
2023/09/29 07:28:40;;;;;;;5.63;2.35;;;;;;;;;;5064308;28;20028;-79
2023/09/29 07:31:06;;;;;;;5.50;2.60;;;;;;;;;;5058268;28;20522;-80
2023/09/29 07:33:31;;;;;;;7.15;2.33;;;;;;;;;;5048664;28;20028;-79
2023/09/29 07:35:56;;;;;;;5.70;2.35;;;;;;;;;;5045258;28;20400;-79
2023/09/29 07:38:22;;;;;;;5.05;2.20;;;;;;;;;;5065831;28;20111;-80
2023/09/29 07:40:48;;;;;;;5.93;2.15;;;;;;;;;;5049693;28;20058;-79
2023/09/29 07:43:13;;;;;;;3.75;2.30;;;;;;;;;;5066565;28;20020;-79
2023/09/29 07:45:39;;;;;;;5.85;2.30;;;;;;;;;;5045429;28;20028;-79
2023/09/29 07:48:05;;;;;;;5.32;2.33;;;;;;;;;;5058919;28;20017;-79
2023/09/29 07:50:30;;;;;;;4.38;2.50;;;;;;;;;;5064190;28;20476;-79
2023/09/29 07:52:55;;;;;;;4.70;2.30;;;;;;;;;;5064753;28;20024;-79
2023/09/29 07:55:21;;;;;;;5.40;2.20;;;;;;;;;;5049897;28;20116;-79
2023/09/29 07:57:46;;;;;;;5.38;2.45;;;;;;;;;;5035024;28;20036;-79
2023/09/29 08:00:14;;;;;;;5.80;2.38;;;;;;;;;;5045583;28;20043;-80
2023/09/29 08:02:39;;;;;;;5.53;2.55;;;;;;;;;;5062034;28;20052;-79
2023/09/29 08:05:07;;;;;;;3.92;2.30;;;;;;;;;;5049004;28;20055;-79
2023/09/29 08:07:33;;;;;;;5.38;2.42;;;;;;;;;;5044008;28;20029;-80
2023/09/29 08:09:58;;;;;;;5.90;2.30;;;;;;;;;;5056068;28;20039;-80
2023/09/29 08:12:24;;;;;;;4.88;2.30;;;;;;;;;;5066313;28;20032;-79
2023/09/29 08:14:50;;;;;;;5.82;2.40;;;;;;;;;;5048473;28;20024;-79
2023/09/29 08:17:15;;;;;;;6.32;2.60;;;;;;;;;;5066367;28;20085;-79
2023/09/29 08:19:41;;;;;;;5.97;2.60;;;;;;;;;;5054880;28;20480;-80
2023/09/29 08:22:06;;;;;;;4.80;2.30;;;;;;;;;;5074890;28;20020;-82
2023/09/29 08:24:32;;;;;;;3.70;2.05;;;;;;;;;;5045155;28;20028;-81
2023/09/29 08:26:58;;;;;;;5.85;2.30;;;;;;;;;;5065759;28;20031;-81
2023/09/29 08:29:23;;;;;;;5.03;2.53;;;;;;;;;;5053006;28;20016;-82
2023/09/29 08:31:49;;;;;;;4.93;2.20;;;;;;;;;;5065153;28;20070;-82
2023/09/29 08:34:16;;;;;;;4.20;2.00;;;;;;;;;;5065972;28;20035;-81
2023/09/29 08:36:41;;;;;;;3.95;1.98;;;;;;;;;;5048315;28;20543;-81
2023/09/29 08:39:10;;;;;;;4.93;2.10;;;;;;;;;;5077825;28;20108;-81
2023/09/29 08:41:39;;;;;;;4.97;2.13;;;;;;;;;;5070012;28;20043;-80
2023/09/29 08:44:08;;;;;;;4.82;2.50;;;;;;;;;;5049891;28;20116;-79
2023/09/29 08:46:35;;;;;;;4.85;2.17;;;;;;;;;;5056883;28;20054;-80
2023/09/29 08:49:03;;;;;;;11.52;2.40;;;;;;;;;;5052168;28;20028;-79
2023/09/29 08:51:31;;;;;;;5.55;2.83;;;;;;;;;;5042123;28;20041;-80
2023/09/29 08:53:58;;;;;;;7.88;2.70;;;;;;;;;;5045593;28;20760;-80
2023/09/29 08:56:24;;;;;;;6.13;2.20;;;;;;;;;;5047508;28;20032;-81
2023/09/29 08:58:55;;;;;;;8.43;2.35;;;;;;;;;;5056659;28;20033;-80
2023/09/29 09:01:21;;;;;;;5.45;2.25;;;;;;;;;;5054223;28;21086;-79
2023/09/29 09:03:46;;;;;;;4.20;2.10;;;;;;;;;;5037125;28;20155;-79
2023/09/29 09:06:22;;;;;;;9.43;2.40;;;;;;;;;;5056604;28;20035;-76
2023/09/29 09:08:50;;;;;;;5.55;2.40;;;;;;;;;;5060769;28;20558;-79
2023/09/29 09:11:15;;;;;;;5.28;2.30;;;;;;;;;;5063067;28;20034;-79
2023/09/29 09:13:40;;;;;;;5.10;2.42;;;;;;;;;;5062424;28;20020;-79
2023/09/29 09:16:07;;;;;;;6.43;2.53;;;;;;;;;;5064387;28;20062;-79
2023/09/29 09:18:32;;;;;;;4.75;2.33;;;;;;;;;;5035241;28;20471;-80
2023/09/29 09:20:58;;;;;;;5.00;2.53;;;;;;;;;;5057804;28;20056;-80
2023/09/29 09:23:23;;;;;;;7.20;2.90;;;;;;;;;;5037978;28;20104;-79
2023/09/29 09:25:49;;;;;;;6.97;2.70;;;;;;;;;;5059297;28;20039;-80
2023/09/29 09:28:19;;;;;;;5.82;2.63;;;;;;;;;;5053948;28;20460;-80
2023/09/29 09:30:46;;;;;;;9.77;3.10;;;;;;;;;;5066105;28;20368;-80
2023/09/29 09:33:21;;;;;;;6.18;2.90;;;;;;;;;;5039021;28;20796;-80
2023/09/29 09:35:49;;;;;;;7.25;2.70;;;;;;;;;;5035547;28;20056;-79
2023/09/29 09:38:14;;;;;;;5.55;3.00;;;;;;;;;;5060597;28;20541;-79
2023/09/29 09:40:40;;;;;;;6.88;2.90;;;;;;;;;;5055070;28;21524;-80
2023/09/29 09:43:07;;;;;;;5.82;2.45;;;;;;;;;;5057138;28;20135;-80
2023/09/29 09:45:39;;;;;;;5.13;2.42;;;;;;;;;;5048469;28;20032;-80
2023/09/29 09:48:09;;;;;;;6.80;2.47;;;;;;;;;;5054586;28;20100;-80
2023/09/29 09:50:38;;;;;;;5.35;2.58;;;;;;;;;;5063214;28;20025;-80
2023/09/29 09:53:08;;;;;;;6.25;2.60;;;;;;;;;;5056971;28;20032;-79
2023/09/29 09:55:52;;;;;;;8.02;2.30;;;;;;;;;;5060490;28;20029;-80
2023/09/29 09:58:21;;;;;;;6.15;2.20;;;;;;;;;;5064081;28;20120;-80
2023/09/29 10:00:49;;;;;;;4.40;2.45;;;;;;;;;;5062147;28;20020;-80
2023/09/29 10:03:16;;;;;;;4.35;2.10;;;;;;;;;;5047430;28;20036;-80
2023/09/29 10:05:49;;;;;;;4.95;2.33;;;;;;;;;;5061602;28;20365;-79
2023/09/29 10:08:22;;;;;;;;;;;;;;;;;;5062705;28;20039;-79
2023/09/29 10:10:48;;;;;;;4.97;2.83;;;;;;;;;;5058150;28;19924;-79
2023/09/29 10:13:15;;;;;;;4.78;2.58;;;;;;;;;;5040254;28;20514;-80
2023/09/29 10:15:42;;;;;;;4.68;2.33;;;;;;;;;;5062217;28;20056;-79
2023/09/29 10:18:18;;;;;;;6.90;2.40;;;;;;;;;;5055572;28;20075;-80
2023/09/29 10:20:44;;;;;;;6.32;2.70;;;;;;;;;;5039492;28;20720;-80
2023/09/29 10:23:14;;;;;;;5.57;2.75;;;;;;;;;;5047316;28;20329;-80
2023/09/29 10:25:45;;;;;;;6.05;2.80;;;;;;;;;;5041853;28;20458;-79
2023/09/29 10:28:12;;;;;;;6.50;2.80;;;;;;;;;;5028400;28;20037;-79
2023/09/29 10:30:39;;;;;;;7.28;2.92;;;;;;;;;;5043681;28;20020;-80
2023/09/29 10:33:13;;;;;;;7.32;2.90;;;;;;;;;;5034749;28;21460;-80
2023/09/29 10:35:47;;;;;;;6.47;3.00;;;;;;;;;;5040454;28;20047;-80
2023/09/29 10:38:26;;;;;;;4.45;2.58;;;;;;;;;;5059472;28;20028;-80
2023/09/29 10:40:55;;;;;;;5.32;2.70;;;;;;;;;;5062563;28;20028;-80
2023/09/29 10:43:24;;;;;;;6.05;2.67;;;;;;;;;;5056915;28;20492;-80
2023/09/29 10:45:50;;;;;;;6.22;2.97;;;;;;;;;;5057142;28;20020;-80
2023/09/29 10:48:19;;;;;;;5.38;3.00;;;;;;;;;;5048275;28;20484;-80
2023/09/29 10:50:49;;;;;;;7.82;2.85;;;;;;;;;;5062989;28;20020;-80
2023/09/29 10:53:15;;;;;;;5.80;2.83;;;;;;;;;;5039089;28;20054;-80
2023/09/29 10:55:46;;;;;;;6.88;2.80;;;;;;;;;;5057868;28;20028;-80
2023/09/29 10:58:13;;;;;;;5.53;3.40;;;;;;;;;;5058594;28;20039;-80
2023/09/29 11:00:49;;;;;;;7.75;2.80;;;;;;;;;;5040432;28;20512;-80
2023/09/29 11:03:16;;;;;;;6.43;3.22;;;;;;;;;;5042329;28;20040;-80
2023/09/29 11:06:08;;;;;;;4.88;2.83;;;;;;;;;;5064268;28;20476;-79
2023/09/29 11:08:38;;;;;;;4.70;2.85;;;;;;;;;;5042586;28;20143;-80
2023/09/29 11:11:06;;;;;;;7.75;3.10;;;;;;;;;;5062691;28;20099;-80
2023/09/29 11:13:32;;;;;;;5.97;2.95;;;;;;;;;;5041283;28;20035;-80
2023/09/29 11:16:02;;;;;;;5.78;2.70;;;;;;;;;;5057613;28;20025;-81
2023/09/29 11:18:33;;;;;;;5.18;3.05;;;;;;;;;;5039430;28;20025;-81
2023/09/29 11:21:00;;;;;;;4.20;2.50;;;;;;;;;;5042205;28;20036;-80
2023/09/29 11:23:28;;;;;;;6.07;2.30;;;;;;;;;;5039208;28;20070;-80
2023/09/29 11:25:59;;;;;;;3.53;2.17;;;;;;;;;;5013644;28;20031;-80
2023/09/29 11:28:26;;;;;;;4.65;2.30;;;;;;;;;;5034275;28;20111;-80
2023/09/29 11:30:52;;;;;;;3.67;2.45;;;;;;;;;;5030519;28;20052;-79
2023/09/29 11:33:19;;;;;;;8.30;2.40;;;;;;;;;;5054490;28;20135;-80
2023/09/29 11:35:48;;;;;;;4.40;2.25;;;;;;;;;;5052241;28;20016;-79
2023/09/29 11:38:21;;;;;;;4.70;2.60;;;;;;;;;;5043246;28;20425;-80
2023/09/29 11:40:50;;;;;;;6.53;2.30;;;;;;;;;;5048697;28;20036;-79
2023/09/29 11:43:16;;;;;;;5.57;2.40;;;;;;;;;;5013412;28;20805;-80
2023/09/29 11:45:42;;;;;;;4.05;2.38;;;;;;;;;;5025135;28;20028;-79
2023/09/29 11:48:08;;;;;;;4.82;2.40;;;;;;;;;;5046623;28;20097;-80
2023/09/29 11:50:34;;;;;;;5.25;2.28;;;;;;;;;;5029511;28;20033;-79
2023/09/29 11:53:06;;;;;;;7.70;2.80;;;;;;;;;;5039572;28;20045;-79
2023/09/29 11:55:32;;;;;;;6.33;3.17;;;;;;;;;;5049236;28;20492;-78
2023/09/29 11:57:57;;;;;;;7.57;4.28;;;;;;;;;;5051548;28;20055;-77
2023/09/29 12:00:23;;;;;;;7.13;4.00;;;;;;;;;;5055543;28;20126;-77
2023/09/29 12:02:48;;;;;;;5.15;3.47;;;;;;;;;;5030666;28;20025;-77
2023/09/29 12:05:13;;;;;;;5.70;3.00;;;;;;;;;;5033339;28;20426;-77
2023/09/29 12:07:39;;;;;;;5.20;2.25;;;;;;;;;;5050321;28;20492;-77
2023/09/29 12:10:05;;;;;;;3.38;1.65;;;;;;;;;;5046650;28;20025;-77
2023/09/29 12:12:33;;;;;;;3.90;1.35;;;;;;;;;;5052708;28;20039;-77
2023/09/29 12:14:59;;;;;;;2.92;1.10;;;;;;;;;;5045980;28;20480;-77
2023/09/29 12:17:25;;;;;;;2.58;0.90;;;;;;;;;;5054114;28;20036;-77
2023/09/29 12:19:51;;;;;;;1.63;0.77;;;;;;;;;;5036355;28;20140;-77
2023/09/29 12:22:17;;;;;;;3.13;0.90;;;;;;;;;;5040897;28;20570;-77
2023/09/29 12:24:42;;;;;;;4.45;1.10;;;;;;;;;;5043053;28;20472;-77
2023/09/29 12:27:08;;;;;;;5.05;1.00;;;;;;;;;;5049413;28;20107;-77
2023/09/29 12:29:34;;;;;;;2.97;1.10;;;;;;;;;;5049658;28;20036;-77
2023/09/29 12:32:00;;;;;;;2.78;1.08;;;;;;;;;;5036527;28;20031;-77
2023/09/29 12:34:25;;;;;;;3.00;0.90;;;;;;;;;;5049720;28;20388;-77
2023/09/29 12:36:51;;;;;;;2.47;0.85;;;;;;;;;;5042327;28;20093;-78
2023/09/29 12:39:17;;;;;;;2.72;0.80;;;;;;;;;;5054967;28;20368;-77
2023/09/29 12:41:42;;;;;;;3.05;0.93;;;;;;;;;;5040574;28;20035;-77
2023/09/29 12:44:09;;;;;;;2.25;0.80;;;;;;;;;;5036745;28;20115;-77
2023/09/29 12:46:34;;;;;;;3.45;1.00;;;;;;;;;;5052982;28;20037;-78
2023/09/29 12:48:59;;;;;;;4.40;1.20;;;;;;;;;;5024978;28;20071;-77
2023/09/29 12:51:25;;;;;;;2.92;1.13;;;;;;;;;;5045149;28;20101;-77
2023/09/29 12:53:50;;;;;;;3.83;1.20;;;;;;;;;;5032906;28;20028;-78
2023/09/29 12:56:16;;;;;;;4.75;1.40;;;;;;;;;;5050954;28;20534;-78
2023/09/29 12:58:41;;;;;;;2.67;1.08;;;;;;;;;;5056584;28;20036;-78
2023/09/29 13:01:07;;;;;;;3.58;1.20;;;;;;;;;;5036164;28;20486;-77
2023/09/29 13:03:32;;;;;;;2.28;1.00;;;;;;;;;;5040029;28;20370;-77
2023/09/29 13:05:59;;;;;;;4.20;1.30;;;;;;;;;;5037282;28;20029;-77
2023/09/29 13:08:25;;;;;;;3.08;1.15;;;;;;;;;;5036038;28;20025;-77
2023/09/29 13:10:50;;;;;;;3.42;1.08;;;;;;;;;;5060660;28;20031;-78
2023/09/29 13:13:16;;;;;;;4.15;1.13;;;;;;;;;;5058939;28;20024;-78
2023/09/29 13:15:42;;;;;;;5.50;1.33;;;;;;;;;;5060267;28;20032;-77
2023/09/29 13:18:07;;;;;;;4.50;1.10;;;;;;;;;;5032668;28;20378;-78
2023/09/29 13:20:32;;;;;;;5.30;1.13;;;;;;;;;;5049955;28;20040;-78
2023/09/29 13:22:58;;;;;;;4.55;1.38;;;;;;;;;;5055816;28;20028;-78
2023/09/29 13:25:24;;;;;;;6.55;1.15;;;;;;;;;;5057225;28;20211;-78
2023/09/29 13:27:49;;;;;;;5.30;1.05;;;;;;;;;;5039222;28;20121;-77
2023/09/29 13:30:16;;;;;;;5.60;1.27;;;;;;;;;;5053970;28;20479;-78
2023/09/29 13:32:42;;;;;;;4.45;1.00;;;;;;;;;;5060632;28;20403;-78
2023/09/29 13:35:08;;;;;;;3.92;1.02;;;;;;;;;;5058156;28;20025;-78
2023/09/29 13:37:34;;;;;;;5.85;1.10;;;;;;;;;;5031961;28;20485;-78
2023/09/29 13:39:59;;;;;;;6.40;1.40;;;;;;;;;;5020945;28;20048;-78
2023/09/29 13:42:25;;;;;;;6.55;1.40;;;;;;;;;;5027530;28;20434;-78
2023/09/29 13:44:50;;;;;;;3.70;0.98;;;;;;;;;;5053355;28;20036;-77
2023/09/29 13:47:15;;;;;;;4.80;1.02;;;;;;;;;;5037418;28;20035;-78
2023/09/29 13:49:41;;;;;;;4.68;1.17;;;;;;;;;;5055773;28;20082;-78
2023/09/29 13:52:06;;;;;;;6.13;1.20;;;;;;;;;;5047493;28;20617;-77
2023/09/29 13:54:32;;;;;;;5.70;1.20;;;;;;;;;;5061432;28;20138;-78
2023/09/29 13:56:58;;;;;;;5.63;1.27;;;;;;;;;;5063004;28;20060;-77
2023/09/29 13:59:23;;;;;;;4.65;1.08;;;;;;;;;;5057452;28;20029;-77
2023/09/29 14:01:48;;;;;;;8.30;1.38;;;;;;;;;;5056668;28;20040;-77
2023/09/29 14:04:14;;;;;;;5.80;1.20;;;;;;;;;;5057662;28;20040;-77
2023/09/29 14:06:39;;;;;;;4.85;1.38;;;;;;;;;;5056292;28;20044;-77
2023/09/29 14:09:04;;;;;;;10.73;1.55;;;;;;;;;;5056931;28;20082;-77
2023/09/29 14:11:30;;;;;;;6.70;1.55;;;;;;;;;;5067415;28;20032;-77
2023/09/29 14:13:56;;;;;;;9.30;1.60;;;;;;;;;;5056682;28;20082;-78
2023/09/29 14:16:21;;;;;;;6.43;1.67;;;;;;;;;;5070281;28;20032;-77
2023/09/29 14:18:47;;;;;;;6.47;1.70;;;;;;;;;;5065111;28;20062;-77
2023/09/29 14:21:12;;;;;;;9.77;2.40;;;;;;;;;;5056774;28;20098;-77
2023/09/29 14:23:37;;;;;;;10.13;2.40;;;;;;;;;;5056424;28;20033;-78
2023/09/29 14:26:03;;;;;;;10.43;2.38;;;;;;;;;;5046254;28;20062;-77
2023/09/29 14:28:29;;;;;;;9.77;3.00;;;;;;;;;;5058741;28;20044;-77
2023/09/29 14:30:54;;;;;;;9.25;2.30;;;;;;;;;;5051102;28;20400;-78
2023/09/29 14:33:19;;;;;;;10.73;2.30;;;;;;;;;;5055966;28;20104;-77
2023/09/29 14:35:45;;;;;;;8.48;2.20;;;;;;;;;;5050600;28;20455;-77
2023/09/29 14:38:10;;;;;;;7.53;2.15;;;;;;;;;;5058912;28;20031;-77
2023/09/29 14:40:36;;;;;;;8.65;2.45;;;;;;;;;;5038864;28;20024;-77